Terminal Aerodrome Forecast
Issued by NWS

Home | Current Version | Previous Version | Text Only | Print | Product List | Glossary On
Versions: 1 2 3 4 5 6 7 8 9 10 11 12 13 14 15 16 17 18 19
752
FTUS43 KJKL 232339
TAFSME
TAF
KSME 232339Z 2400/2424 VRB06KT 6SM -SHRA BR VCTS SCT035CB BKN090
     FM240200 VRB06KT 3SM BR SCT035 BKN100
     FM241100 VRB06KT 3SM BR VCTS SCT001CB OVC025
     FM241400 VRB06KT 3SM SHRA BR VCTS SCT008CB OVC025
     FM241600 VRB03KT 3SM SHRA VCTS SCT008CB OVC015
     FM241800 VRB06KT 5SM SHRA SCT008 OVC020=

USA.gov is the U.S. government's official web portal to all federal, state and local government web resources and services.